createdAt,value
2022-08-30T00:02:20.967Z,100.00
2022-08-30T00:04:49.027Z,100.00
2022-08-30T00:07:16.631Z,100.00
2022-08-30T00:09:44.078Z,100.00
2022-08-30T00:12:12.011Z,100.00
2022-08-30T00:14:39.427Z,100.00
2022-08-30T00:17:06.844Z,100.00
2022-08-30T00:19:34.550Z,100.00
2022-08-30T00:22:01.919Z,100.00
2022-08-30T00:24:29.598Z,100.00
2022-08-30T00:26:57.281Z,100.00
2022-08-30T00:29:24.812Z,100.00
2022-08-30T00:31:52.485Z,100.00
2022-08-30T00:34:20.247Z,100.00
2022-08-30T00:36:47.642Z,100.00
2022-08-30T00:39:15.026Z,100.00
2022-08-30T00:41:50.716Z,100.00
2022-08-30T00:44:21.103Z,100.00
2022-08-30T00:46:49.728Z,100.00
2022-08-30T00:49:40.230Z,100.00
2022-08-30T00:52:35.677Z,100.00
2022-08-30T00:59:09.482Z,100.00
2022-08-30T01:02:03.369Z,100.00
2022-08-30T01:04:32.909Z,100.00
2022-08-30T01:07:00.635Z,100.00
2022-08-30T01:09:28.217Z,100.00
2022-08-30T01:11:56.771Z,100.00
2022-08-30T01:14:25.887Z,100.00
2022-08-30T01:16:56.428Z,100.00
2022-08-30T01:19:42.415Z,100.00
2022-08-30T01:22:31.069Z,100.00
2022-08-30T01:25:02.664Z,100.00
2022-08-30T01:27:31.975Z,100.00
2022-08-30T01:29:59.667Z,100.00
2022-08-30T01:32:29.534Z,100.00
2022-08-30T01:34:58.946Z,100.00
2022-08-30T01:37:30.910Z,100.00
2022-08-30T01:39:59.399Z,100.00
2022-08-30T01:42:27.988Z,100.00
2022-08-30T01:44:58.539Z,100.00
2022-08-30T01:47:27.546Z,100.00
2022-08-30T01:49:54.986Z,100.00
2022-08-30T01:52:23.156Z,100.00
2022-08-30T01:54:51.234Z,100.00
2022-08-30T01:57:22.299Z,100.00
2022-08-30T01:59:50.689Z,100.00
2022-08-30T02:02:44.947Z,100.00
2022-08-30T02:05:12.612Z,100.00
2022-08-30T02:07:40.481Z,100.00
2022-08-30T02:10:08.286Z,100.00
2022-08-30T02:12:36.596Z,100.00
2022-08-30T02:15:41.850Z,100.00
2022-08-30T02:18:19.728Z,100.00
2022-08-30T02:20:47.837Z,100.00
2022-08-30T02:23:15.944Z,100.00
2022-08-30T02:25:43.999Z,100.00
2022-08-30T02:28:16.223Z,100.00
2022-08-30T02:30:49.586Z,100.00
2022-08-30T02:33:18.352Z,100.00
2022-08-30T02:35:50.677Z,100.00
2022-08-30T02:38:32.506Z,100.00
2022-08-30T02:41:32.085Z,100.00
2022-08-30T02:44:17.662Z,100.00
2022-08-30T02:46:45.930Z,100.00
2022-08-30T02:49:32.495Z,100.00
2022-08-30T02:52:01.080Z,100.00
2022-08-30T02:54:28.884Z,100.00
2022-08-30T02:56:57.466Z,100.00
2022-08-30T02:59:24.925Z,100.00
2022-08-30T03:01:53.149Z,100.00
2022-08-30T03:04:26.390Z,100.00
2022-08-30T03:06:55.555Z,100.00
2022-08-30T03:09:23.148Z,100.00
2022-08-30T03:11:50.588Z,100.00
2022-08-30T03:14:18.182Z,100.00
2022-08-30T03:16:45.674Z,100.00
2022-08-30T03:19:13.194Z,100.00
2022-08-30T03:21:41.067Z,100.00
2022-08-30T03:24:08.985Z,100.00
2022-08-30T03:26:37.007Z,100.00
2022-08-30T03:29:05.080Z,100.00
2022-08-30T03:31:37.798Z,100.00
2022-08-30T03:34:53.328Z,100.00
2022-08-30T03:37:38.693Z,100.00
2022-08-30T03:40:36.070Z,100.00
2022-08-30T03:43:07.125Z,100.00
2022-08-30T03:46:22.787Z,100.00
2022-08-30T03:49:44.065Z,100.00
2022-08-30T03:53:03.240Z,100.00
2022-08-30T03:55:33.671Z,100.00
2022-08-30T03:58:04.583Z,100.00
2022-08-30T04:00:34.688Z,100.00
2022-08-30T04:03:05.885Z,100.00
2022-08-30T04:05:35.783Z,100.00
2022-08-30T04:08:31.894Z,100.00
2022-08-30T04:11:10.739Z,100.00
2022-08-30T04:14:10.565Z,100.00
2022-08-30T04:16:56.661Z,100.00
2022-08-30T04:19:24.690Z,100.00
2022-08-30T04:21:52.455Z,100.00
2022-08-30T04:24:20.333Z,100.00
2022-08-30T04:26:47.815Z,100.00
2022-08-30T04:29:17.829Z,100.00
2022-08-30T04:31:49.144Z,100.00
2022-08-30T04:34:30.167Z,100.00
2022-08-30T04:37:13.848Z,100.00
2022-08-30T04:39:43.551Z,100.00
2022-08-30T04:42:11.594Z,100.00
2022-08-30T04:44:39.078Z,100.00
2022-08-30T04:47:41.224Z,100.00
2022-08-30T04:50:26.597Z,100.00
2022-08-30T04:52:59.846Z,100.00
2022-08-30T04:55:28.314Z,100.00
2022-08-30T04:57:56.639Z,100.00
2022-08-30T05:00:24.405Z,100.00
2022-08-30T05:02:53.541Z,100.00
2022-08-30T05:05:39.788Z,100.00
2022-08-30T05:08:15.341Z,100.00
2022-08-30T05:10:45.602Z,100.00
2022-08-30T05:13:16.535Z,100.00
2022-08-30T05:15:46.178Z,100.00
2022-08-30T05:18:15.521Z,100.00
2022-08-30T05:20:44.207Z,100.00
2022-08-30T05:23:12.106Z,100.00
2022-08-30T05:25:41.763Z,100.00
2022-08-30T05:28:09.864Z,100.00
2022-08-30T05:33:04.702Z,100.00
2022-08-30T05:35:32.908Z,100.00
2022-08-30T05:38:00.340Z,100.00
2022-08-30T05:40:29.193Z,100.00
2022-08-30T05:42:57.287Z,100.00
2022-08-30T05:45:24.818Z,100.00
2022-08-30T05:47:52.210Z,100.00
2022-08-30T05:50:19.814Z,100.00
2022-08-30T05:52:47.164Z,100.00
2022-08-30T05:55:14.776Z,100.00
2022-08-30T05:57:42.630Z,100.00
2022-08-30T06:00:15.420Z,100.00
2022-08-30T06:02:43.420Z,100.00
2022-08-30T06:05:13.033Z,100.00
2022-08-30T06:07:43.634Z,100.00
2022-08-30T06:10:12.582Z,100.00
2022-08-30T06:12:40.344Z,100.00
2022-08-30T06:15:08.352Z,100.00
2022-08-30T06:17:36.147Z,100.00
2022-08-30T06:20:07.114Z,100.00
2022-08-30T06:22:35.754Z,100.00
2022-08-30T06:25:05.491Z,100.00
2022-08-30T06:27:35.824Z,100.00
2022-08-30T06:30:08.690Z,100.00
2022-08-30T06:32:37.454Z,100.00
2022-08-30T06:35:17.653Z,100.00
2022-08-30T06:37:52.665Z,100.00
2022-08-30T06:40:21.910Z,100.00
2022-08-30T06:42:51.653Z,100.00
2022-08-30T06:45:20.732Z,100.00
2022-08-30T06:47:48.643Z,100.00
2022-08-30T06:50:17.905Z,100.00
2022-08-30T06:52:51.899Z,100.00
2022-08-30T06:55:26.332Z,100.00
2022-08-30T06:57:56.452Z,100.00
2022-08-30T07:00:24.919Z,100.00
2022-08-30T07:02:59.537Z,100.00
2022-08-30T07:05:41.335Z,100.00
2022-08-30T07:08:15.027Z,100.00
2022-08-30T07:10:43.027Z,100.00
2022-08-30T07:13:10.651Z,100.00
2022-08-30T07:15:41.975Z,100.00
2022-08-30T07:18:29.854Z,100.00
2022-08-30T07:20:57.953Z,100.00
2022-08-30T07:23:25.961Z,100.00
2022-08-30T07:25:53.448Z,100.00
2022-08-30T07:28:21.873Z,100.00
2022-08-30T07:30:49.536Z,100.00
2022-08-30T07:33:17.138Z,100.00
2022-08-30T07:35:44.740Z,100.00
2022-08-30T07:38:15.451Z,100.00
2022-08-30T07:40:43.252Z,100.00
2022-08-30T07:43:11.145Z,100.00
2022-08-30T07:45:39.753Z,100.00
2022-08-30T07:48:07.427Z,100.00
2022-08-30T07:50:34.831Z,100.00
2022-08-30T07:53:03.990Z,100.00
2022-08-30T07:55:33.584Z,100.00
2022-08-30T08:00:30.701Z,100.00
2022-08-30T08:02:58.843Z,100.00
2022-08-30T08:05:30.874Z,100.00
2022-08-30T08:08:04.072Z,100.00
2022-08-30T08:10:32.299Z,100.00
2022-08-30T08:13:05.228Z,100.00
2022-08-30T08:15:33.402Z,100.00
2022-08-30T08:18:01.378Z,100.00
2022-08-30T08:20:29.311Z,100.00
2022-08-30T08:22:57.102Z,100.00
2022-08-30T08:25:24.664Z,100.00
2022-08-30T08:27:53.257Z,100.00
2022-08-30T08:30:24.493Z,100.00
2022-08-30T08:32:53.110Z,100.00
2022-08-30T08:35:20.772Z,100.00
2022-08-30T08:37:48.560Z,100.00
2022-08-30T08:40:20.780Z,100.00
2022-08-30T08:43:05.552Z,100.00
2022-08-30T08:45:50.690Z,100.00
2022-08-30T08:48:58.467Z,100.00
2022-08-30T08:51:52.542Z,100.00
2022-08-30T08:54:32.879Z,100.00
2022-08-30T08:57:01.054Z,100.00
2022-08-30T08:59:29.864Z,100.00
2022-08-30T09:02:12.482Z,100.00
2022-08-30T09:04:41.679Z,100.00
2022-08-30T09:07:22.494Z,100.00
2022-08-30T09:09:50.380Z,100.00
2022-08-30T09:12:17.828Z,100.00
2022-08-30T09:15:03.669Z,100.00
2022-08-30T09:17:54.514Z,100.00
2022-08-30T09:20:49.057Z,100.00
2022-08-30T09:23:17.513Z,100.00
2022-08-30T09:26:03.539Z,100.00
2022-08-30T09:28:35.156Z,100.00
2022-08-30T09:31:12.544Z,100.00
2022-08-30T09:33:41.626Z,100.00
2022-08-30T09:36:21.504Z,100.00
2022-08-30T09:39:00.935Z,100.00
2022-08-30T09:41:41.631Z,100.00
2022-08-30T09:44:24.963Z,100.00
2022-08-30T09:46:57.037Z,100.00
2022-08-30T09:49:39.034Z,100.00
2022-08-30T09:52:36.946Z,100.00
2022-08-30T09:55:24.731Z,100.00
2022-08-30T09:58:32.258Z,100.00
2022-08-30T10:01:21.562Z,100.00
2022-08-30T10:04:04.873Z,100.00
2022-08-30T10:06:56.093Z,100.00
2022-08-30T10:09:37.393Z,100.00
2022-08-30T10:12:35.923Z,100.00
2022-08-30T10:15:06.279Z,100.00
2022-08-30T10:18:04.648Z,100.00
2022-08-30T10:20:39.752Z,100.00
2022-08-30T10:23:18.619Z,100.00
2022-08-30T10:25:55.078Z,100.00
2022-08-30T10:28:55.823Z,100.00
2022-08-30T10:31:48.972Z,100.00
2022-08-30T10:34:29.611Z,100.00
2022-08-30T10:37:04.364Z,100.00
2022-08-30T10:39:59.497Z,100.00
2022-08-30T10:42:37.999Z,100.00
2022-08-30T10:45:13.503Z,100.00
2022-08-30T10:47:59.072Z,100.00
2022-08-30T10:50:39.017Z,100.00
2022-08-30T10:53:19.554Z,100.00
2022-08-30T10:56:13.172Z,97.89
2022-08-30T10:58:43.729Z,100.00
2022-08-30T11:01:46.512Z,93.05
2022-08-30T11:04:35.632Z,90.02
2022-08-30T11:07:18.142Z,92.27
2022-08-30T11:10:13.447Z,94.88
2022-08-30T11:13:13.072Z,93.61
2022-08-30T11:16:01.831Z,90.54
2022-08-30T11:18:34.011Z,91.78
2022-08-30T11:21:38.189Z,89.01
2022-08-30T11:24:52.363Z,93.57
2022-08-30T11:27:56.916Z,92.75
2022-08-30T11:30:26.478Z,95.44
2022-08-30T11:33:03.351Z,95.10
2022-08-30T11:35:55.126Z,96.02
2022-08-30T11:38:25.124Z,96.17
2022-08-30T11:40:57.031Z,97.22
2022-08-30T11:43:37.273Z,100.00
2022-08-30T11:46:36.324Z,99.58
2022-08-30T11:49:13.575Z,100.00
2022-08-30T11:52:26.587Z,100.00
2022-08-30T11:55:04.571Z,100.00
2022-08-30T11:58:14.813Z,100.00
2022-08-30T12:00:52.697Z,100.00
2022-08-30T12:03:21.921Z,98.53
2022-08-30T12:05:59.660Z,96.54
2022-08-30T12:08:34.311Z,94.32
2022-08-30T12:11:26.744Z,93.67
2022-08-30T12:13:56.065Z,96.33
2022-08-30T12:16:37.083Z,96.02
2022-08-30T12:19:19.247Z,96.40
2022-08-30T12:21:57.360Z,95.97
2022-08-30T12:24:29.823Z,94.20
2022-08-30T12:26:59.542Z,93.24
2022-08-30T12:29:30.294Z,90.11
2022-08-30T12:32:16.655Z,90.64
2022-08-30T12:34:56.183Z,92.48
2022-08-30T12:37:36.465Z,95.99
2022-08-30T12:40:10.304Z,95.43
2022-08-30T12:42:49.690Z,97.44
2022-08-30T12:45:21.942Z,94.38
2022-08-30T12:47:55.461Z,93.84
2022-08-30T12:50:26.903Z,93.69
2022-08-30T12:53:04.781Z,96.46
2022-08-30T12:55:36.331Z,93.27
2022-08-30T12:58:09.549Z,93.47
2022-08-30T13:00:42.258Z,94.28
2022-08-30T13:03:39.129Z,91.08
2022-08-30T13:06:08.203Z,89.63
2022-08-30T13:08:50.764Z,88.22
2022-08-30T13:11:22.317Z,87.85
2022-08-30T13:14:36.899Z,86.27
2022-08-30T13:17:20.552Z,82.91
2022-08-30T13:20:12.674Z,81.14
2022-08-30T13:23:04.064Z,74.04
2022-08-30T13:25:32.773Z,74.09
2022-08-30T13:28:02.757Z,74.69
2022-08-30T13:30:30.390Z,73.41
2022-08-30T13:32:58.835Z,73.42
2022-08-30T13:35:30.738Z,71.87
2022-08-30T13:38:02.293Z,71.41
2022-08-30T13:40:31.578Z,71.67
2022-08-30T13:43:03.475Z,72.30
2022-08-30T13:45:43.922Z,70.85
2022-08-30T13:48:17.360Z,72.00
2022-08-30T13:50:55.639Z,71.80
2022-08-30T13:56:39.398Z,77.47
2022-08-30T13:59:11.672Z,76.83
2022-08-30T14:04:40.946Z,82.02
2022-08-30T14:07:13.916Z,82.52
2022-08-30T14:09:45.676Z,82.03
2022-08-30T14:12:16.255Z,82.10
2022-08-30T14:15:09.634Z,82.98
2022-08-30T14:17:38.131Z,82.84
2022-08-30T14:20:09.044Z,81.39
2022-08-30T14:22:36.705Z,79.82
2022-08-30T14:25:07.662Z,80.08
2022-08-30T14:27:38.227Z,79.77
2022-08-30T14:30:15.796Z,77.67
2022-08-30T14:32:49.633Z,80.60
2022-08-30T14:35:20.610Z,82.30
2022-08-30T14:37:49.343Z,83.48
2022-08-30T14:40:20.026Z,83.67
2022-08-30T14:42:48.717Z,84.72
2022-08-30T14:45:21.384Z,82.29
2022-08-30T14:47:53.164Z,82.86
2022-08-30T14:50:22.773Z,84.51
2022-08-30T14:52:50.265Z,86.84
2022-08-30T14:55:21.687Z,87.87
2022-08-30T14:57:51.394Z,86.98
2022-08-30T15:00:24.296Z,88.17
2022-08-30T15:03:00.381Z,88.68
2022-08-30T15:05:30.607Z,89.34
2022-08-30T15:08:04.839Z,90.62
2022-08-30T15:10:33.252Z,88.93
2022-08-30T15:13:04.836Z,90.43
2022-08-30T15:15:33.700Z,90.65
2022-08-30T15:18:01.389Z,90.30
2022-08-30T15:20:29.582Z,93.03
2022-08-30T15:23:05.080Z,93.67
2022-08-30T15:25:39.543Z,95.34
2022-08-30T15:28:15.332Z,96.52
2022-08-30T15:30:50.568Z,96.61
2022-08-30T15:33:23.467Z,97.01
2022-08-30T15:36:03.092Z,97.62
2022-08-30T15:38:34.889Z,96.05
2022-08-30T15:41:16.219Z,95.48
2022-08-30T15:43:44.954Z,94.97
2022-08-30T15:46:35.301Z,95.11
2022-08-30T15:49:16.626Z,93.82
2022-08-30T15:51:47.005Z,93.70
2022-08-30T15:54:18.170Z,93.17
2022-08-30T15:56:47.557Z,93.73
2022-08-30T15:59:16.210Z,94.29
2022-08-30T16:01:47.621Z,94.49
2022-08-30T16:04:23.692Z,94.12
2022-08-30T16:06:54.231Z,94.06
2022-08-30T16:09:22.421Z,94.76
2022-08-30T16:11:51.199Z,93.86
2022-08-30T16:14:24.759Z,94.18
2022-08-30T16:16:52.840Z,94.27
2022-08-30T16:19:20.971Z,94.72
2022-08-30T16:21:51.371Z,95.11
2022-08-30T16:24:22.373Z,95.45
2022-08-30T16:26:51.711Z,96.27
2022-08-30T16:29:24.802Z,96.87
2022-08-30T16:31:59.026Z,97.35
2022-08-30T16:34:31.584Z,97.52
2022-08-30T16:37:26.333Z,98.41
2022-08-30T16:40:04.634Z,99.01
2022-08-30T16:42:34.153Z,99.85
2022-08-30T16:45:11.002Z,100.00
2022-08-30T16:47:38.805Z,100.00
2022-08-30T16:50:11.632Z,100.00
2022-08-30T16:52:43.999Z,100.00
2022-08-30T16:55:21.868Z,100.00
2022-08-30T16:57:51.651Z,100.00
2022-08-30T17:00:20.042Z,100.00
2022-08-30T17:02:54.090Z,100.00
2022-08-30T17:05:23.360Z,100.00
2022-08-30T17:07:51.790Z,100.00
2022-08-30T17:10:26.204Z,100.00
2022-08-30T17:13:05.452Z,100.00
2022-08-30T17:15:33.197Z,100.00
2022-08-30T17:18:00.994Z,100.00
2022-08-30T17:20:31.947Z,100.00
2022-08-30T17:25:55.135Z,100.00
2022-08-30T17:28:24.394Z,100.00
2022-08-30T17:30:53.938Z,100.00
2022-08-30T17:33:24.537Z,100.00
2022-08-30T17:35:54.148Z,100.00
2022-08-30T17:38:23.790Z,100.00
2022-08-30T17:40:55.507Z,100.00
2022-08-30T17:43:26.552Z,100.00
2022-08-30T17:46:20.271Z,100.00
2022-08-30T17:48:57.961Z,100.00
2022-08-30T17:51:30.715Z,100.00
2022-08-30T17:54:03.512Z,100.00
2022-08-30T17:56:37.429Z,100.00
2022-08-30T17:59:19.428Z,100.00
2022-08-30T18:01:56.520Z,100.00
2022-08-30T18:04:26.532Z,100.00
2022-08-30T18:06:56.313Z,100.00
2022-08-30T18:09:27.804Z,100.00
2022-08-30T18:11:59.704Z,100.00
2022-08-30T18:14:28.121Z,100.00
2022-08-30T18:16:55.654Z,100.00
2022-08-30T18:19:25.274Z,100.00
2022-08-30T18:21:55.909Z,100.00
2022-08-30T18:24:26.458Z,100.00
2022-08-30T18:26:56.933Z,100.00
2022-08-30T18:29:30.424Z,100.00
2022-08-30T18:32:01.246Z,100.00
2022-08-30T18:34:29.230Z,100.00
2022-08-30T18:36:57.291Z,100.00
2022-08-30T18:39:25.846Z,100.00
2022-08-30T18:41:55.718Z,100.00
2022-08-30T18:44:29.099Z,100.00
2022-08-30T18:47:00.414Z,100.00
2022-08-30T18:49:32.705Z,100.00
2022-08-30T18:52:02.263Z,100.00
2022-08-30T18:54:31.314Z,100.00
2022-08-30T18:57:00.186Z,100.00
2022-08-30T18:59:35.656Z,100.00
2022-08-30T19:02:12.172Z,100.00
2022-08-30T19:04:45.185Z,100.00
2022-08-30T19:07:17.356Z,100.00
2022-08-30T19:09:59.084Z,100.00
2022-08-30T19:12:39.242Z,100.00
2022-08-30T19:15:15.225Z,100.00
2022-08-30T19:17:49.574Z,100.00
2022-08-30T19:20:20.786Z,100.00
2022-08-30T19:23:09.623Z,100.00
2022-08-30T19:25:41.052Z,100.00
2022-08-30T19:28:17.323Z,100.00
2022-08-30T19:31:10.559Z,100.00
2022-08-30T19:33:43.475Z,100.00
2022-08-30T19:36:13.947Z,100.00
2022-08-30T19:38:49.607Z,100.00
2022-08-30T19:41:18.608Z,100.00
2022-08-30T19:43:48.227Z,100.00
2022-08-30T19:46:20.401Z,100.00
2022-08-30T19:48:51.327Z,100.00
2022-08-30T19:51:23.714Z,100.00
2022-08-30T19:54:17.348Z,100.00
2022-08-30T19:56:47.160Z,100.00
2022-08-30T19:59:20.559Z,100.00
2022-08-30T20:01:53.067Z,100.00
2022-08-30T20:04:22.937Z,100.00
2022-08-30T20:06:51.838Z,100.00
2022-08-30T20:09:22.887Z,100.00
2022-08-30T20:11:52.565Z,100.00
2022-08-30T20:14:24.224Z,100.00
2022-08-30T20:16:53.454Z,100.00
2022-08-30T20:19:29.347Z,100.00
2022-08-30T20:24:25.163Z,100.00
2022-08-30T20:24:46.634Z,100.00
2022-08-30T20:27:22.194Z,100.00
2022-08-30T20:29:51.977Z,100.00
2022-08-30T20:32:20.007Z,100.00
2022-08-30T20:34:54.142Z,100.00
2022-08-30T20:37:24.448Z,100.00
2022-08-30T20:39:57.362Z,100.00
2022-08-30T20:42:27.697Z,100.00
2022-08-30T20:44:58.848Z,100.00
2022-08-30T20:47:29.585Z,100.00
2022-08-30T20:49:58.262Z,100.00
2022-08-30T20:52:25.709Z,100.00
2022-08-30T20:54:54.624Z,100.00
2022-08-30T20:57:24.495Z,100.00
2022-08-30T20:59:52.157Z,100.00
2022-08-30T21:02:19.893Z,100.00
2022-08-30T21:04:47.533Z,100.00
2022-08-30T21:07:15.186Z,100.00
2022-08-30T21:09:43.733Z,100.00
2022-08-30T21:12:16.821Z,100.00
2022-08-30T21:14:46.462Z,100.00
2022-08-30T21:17:15.672Z,100.00
2022-08-30T21:19:47.461Z,100.00
2022-08-30T21:22:22.932Z,100.00
2022-08-30T21:25:02.839Z,100.00
2022-08-30T21:27:32.489Z,100.00
2022-08-30T21:30:01.039Z,100.00
2022-08-30T21:32:33.909Z,100.00
2022-08-30T21:35:22.758Z,100.00
2022-08-30T21:37:50.259Z,100.00
2022-08-30T21:40:18.313Z,100.00
2022-08-30T21:42:46.086Z,100.00
2022-08-30T21:45:14.407Z,100.00
2022-08-30T21:47:42.474Z,100.00
2022-08-30T21:50:10.197Z,100.00
2022-08-30T21:52:37.664Z,100.00
2022-08-30T21:55:06.038Z,100.00
2022-08-30T21:57:33.577Z,100.00
2022-08-30T22:00:01.015Z,100.00
2022-08-30T22:02:30.869Z,100.00
2022-08-30T22:04:58.361Z,100.00
2022-08-30T22:07:25.751Z,100.00
2022-08-30T22:09:53.458Z,100.00
2022-08-30T22:12:21.724Z,100.00
2022-08-30T22:14:53.385Z,100.00
2022-08-30T22:17:21.731Z,100.00
2022-08-30T22:19:49.118Z,100.00
2022-08-30T22:22:16.538Z,100.00
2022-08-30T22:24:44.349Z,100.00
2022-08-30T22:27:12.256Z,100.00
2022-08-30T22:29:39.849Z,100.00
2022-08-30T22:32:09.797Z,100.00
2022-08-30T22:34:38.875Z,100.00
2022-08-30T22:37:06.226Z,100.00
2022-08-30T22:39:52.519Z,100.00
2022-08-30T22:42:20.236Z,100.00
2022-08-30T22:44:48.545Z,100.00
2022-08-30T22:47:17.219Z,100.00
2022-08-30T22:49:44.958Z,100.00
2022-08-30T22:52:16.662Z,100.00
2022-08-30T22:54:52.238Z,100.00
2022-08-30T22:57:20.058Z,100.00
2022-08-30T22:59:47.494Z,100.00
2022-08-30T23:02:15.411Z,100.00
2022-08-30T23:04:43.843Z,100.00
2022-08-30T23:07:11.533Z,100.00
2022-08-30T23:09:39.881Z,100.00
2022-08-30T23:12:09.619Z,100.00
2022-08-30T23:14:37.356Z,100.00
2022-08-30T23:17:05.801Z,100.00
2022-08-30T23:19:33.722Z,100.00
2022-08-30T23:22:01.658Z,100.00
2022-08-30T23:24:49.145Z,100.00
2022-08-30T23:27:35.513Z,100.00
2022-08-30T23:30:23.991Z,100.00
2022-08-30T23:33:09.877Z,100.00
2022-08-30T23:36:02.314Z,100.00
2022-08-30T23:38:48.446Z,100.00
2022-08-30T23:41:35.347Z,100.00
2022-08-30T23:44:24.424Z,100.00
2022-08-30T23:47:11.232Z,100.00
2022-08-30T23:49:57.068Z,100.00
2022-08-30T23:52:43.774Z,100.00
2022-08-30T23:55:29.593Z,100.00
2022-08-30T23:58:17.540Z,100.00
